createdAt,value
2023-03-28T00:02:14.225Z,1.73
2023-03-28T00:04:49.795Z,5.68
2023-03-28T00:07:21.781Z,4.50
2023-03-28T00:09:57.505Z,7.10
2023-03-28T00:12:29.337Z,3.13
2023-03-28T00:15:04.390Z,3.10
2023-03-28T00:17:36.178Z,4.28
2023-03-28T00:20:14.368Z,4.65
2023-03-28T00:22:46.779Z,4.28
2023-03-28T00:25:21.676Z,8.38
2023-03-28T00:30:28.042Z,5.57
2023-03-28T00:32:59.878Z,4.30
2023-03-28T00:35:32.663Z,3.00
2023-03-28T00:38:04.392Z,2.38
2023-03-28T00:40:37.883Z,3.00
2023-03-28T00:43:13.800Z,3.45
2023-03-28T00:45:48.846Z,5.40
2023-03-28T00:48:28.446Z,4.50
2023-03-28T00:51:06.974Z,4.63
2023-03-28T00:53:38.799Z,4.40
2023-03-28T00:56:14.422Z,3.05
2023-03-28T00:58:48.853Z,4.43
2023-03-28T01:01:20.960Z,5.82
2023-03-28T01:04:02.272Z,4.60
2023-03-28T01:06:40.595Z,3.85
2023-03-28T01:09:18.929Z,3.95
2023-03-28T01:11:57.714Z,25.42
2023-03-28T01:14:30.334Z,4.65
2023-03-28T01:17:04.727Z,6.18
2023-03-28T01:19:59.420Z,3.10
2023-03-28T01:22:56.582Z,2.17
2023-03-28T01:25:44.024Z,2.95
2023-03-28T01:29:16.661Z,2.80
2023-03-28T01:32:07.855Z,3.97
2023-03-28T01:35:39.458Z,3.55
2023-03-28T01:38:43.637Z,3.35
2023-03-28T01:41:41.750Z,4.07
2023-03-28T01:44:27.093Z,3.42
2023-03-28T01:47:17.726Z,2.50
2023-03-28T01:50:08.988Z,2.83
2023-03-28T01:52:49.551Z,4.07
2023-03-28T01:55:27.193Z,4.60
2023-03-28T01:58:07.073Z,5.88
2023-03-28T02:01:23.207Z,2.28
2023-03-28T02:04:01.205Z,3.58
2023-03-28T02:06:46.930Z,4.45
2023-03-28T02:09:26.335Z,4.10
2023-03-28T02:12:31.220Z,3.15
2023-03-28T02:15:16.595Z,5.68
2023-03-28T02:18:23.716Z,2.30
2023-03-28T02:21:21.925Z,6.15
2023-03-28T02:24:27.093Z,3.92
2023-03-28T02:27:17.802Z,3.53
2023-03-28T02:30:11.069Z,1.77
2023-03-28T02:32:44.161Z,3.05
2023-03-28T02:35:28.254Z,1.88
2023-03-28T02:38:09.872Z,4.40
2023-03-28T02:41:04.004Z,3.22
2023-03-28T02:44:06.320Z,2.53
2023-03-28T02:46:51.938Z,3.80
2023-03-28T02:49:24.119Z,3.30
2023-03-28T02:52:37.684Z,3.22
2023-03-28T02:55:35.585Z,3.13
2023-03-28T02:58:27.769Z,5.75
2023-03-28T03:01:02.572Z,3.83
2023-03-28T03:06:08.845Z,3.35
2023-03-28T03:08:40.720Z,2.95
2023-03-28T03:11:12.604Z,2.47
2023-03-28T03:13:44.467Z,4.53
2023-03-28T03:16:16.158Z,5.00
2023-03-28T03:18:47.870Z,4.18
2023-03-28T03:21:21.933Z,4.22
2023-03-28T03:23:53.766Z,5.05
2023-03-28T03:26:25.799Z,5.35
2023-03-28T03:29:05.568Z,3.47
2023-03-28T03:31:37.831Z,3.60
2023-03-28T03:34:26.225Z,3.00
2023-03-28T03:37:02.418Z,3.67
2023-03-28T03:39:36.071Z,6.28
2023-03-28T03:42:16.705Z,2.28
2023-03-28T03:44:48.493Z,4.63
2023-03-28T03:47:23.332Z,3.92
2023-03-28T03:49:56.597Z,3.05
2023-03-28T03:52:31.092Z,3.83
2023-03-28T03:55:08.895Z,3.80
2023-03-28T03:57:43.524Z,6.78
2023-03-28T04:00:16.768Z,7.50
2023-03-28T04:02:57.167Z,4.43
2023-03-28T04:05:30.986Z,3.80
2023-03-28T04:08:07.733Z,5.40
2023-03-28T04:10:47.375Z,3.38
2023-03-28T04:13:25.592Z,2.95
2023-03-28T04:16:03.850Z,5.63
2023-03-28T04:21:32.357Z,7.78
2023-03-28T04:24:08.990Z,1.85
2023-03-28T04:26:56.155Z,4.30
2023-03-28T04:29:31.854Z,5.85
2023-03-28T04:32:22.005Z,2.88
2023-03-28T04:35:07.910Z,7.15
2023-03-28T04:37:39.765Z,4.25
2023-03-28T04:40:15.645Z,8.00
2023-03-28T04:43:03.305Z,6.10
2023-03-28T04:45:39.451Z,2.50
2023-03-28T04:48:23.619Z,8.73
2023-03-28T04:50:56.175Z,6.95
2023-03-28T04:53:29.858Z,40.25
2023-03-28T04:56:40.893Z,3.28
2023-03-28T04:59:13.200Z,7.43
2023-03-28T05:01:49.437Z,5.65
2023-03-28T05:04:40.405Z,4.95
2023-03-28T05:07:13.691Z,4.13
2023-03-28T05:09:45.385Z,4.10
2023-03-28T05:12:17.043Z,7.63
2023-03-28T05:15:07.613Z,2.67
2023-03-28T05:17:51.602Z,2.97
2023-03-28T05:20:38.039Z,3.38
2023-03-28T05:23:10.245Z,5.18
2023-03-28T05:25:51.726Z,4.47
2023-03-28T05:28:23.852Z,4.82
2023-03-28T05:30:57.407Z,2.67
2023-03-28T05:33:32.422Z,2.42
2023-03-28T05:36:07.018Z,3.58
2023-03-28T05:38:38.892Z,3.25
2023-03-28T05:41:20.321Z,4.15
2023-03-28T05:43:52.631Z,4.13
2023-03-28T05:46:39.356Z,5.07
2023-03-28T05:49:11.935Z,3.22
2023-03-28T05:51:43.805Z,2.63
2023-03-28T05:54:15.460Z,6.75
2023-03-28T05:56:47.255Z,4.35
2023-03-28T05:59:20.070Z,7.30
2023-03-28T06:01:53.087Z,4.00
2023-03-28T06:04:25.794Z,3.08
2023-03-28T06:06:57.591Z,5.97
2023-03-28T06:09:31.644Z,2.17
2023-03-28T06:12:06.505Z,0.85
2023-03-28T06:14:41.683Z,2.42
2023-03-28T06:17:18.874Z,2.00
2023-03-28T06:19:55.354Z,1.63
2023-03-28T06:22:28.084Z,1.92
2023-03-28T06:25:04.773Z,2.53
2023-03-28T06:27:37.643Z,1.70
2023-03-28T06:30:09.970Z,5.72
2023-03-28T06:32:49.134Z,4.43
2023-03-28T06:35:21.215Z,2.58
2023-03-28T06:37:52.950Z,3.15
2023-03-28T06:40:30.576Z,5.53
2023-03-28T06:43:07.740Z,2.75
2023-03-28T06:45:48.054Z,4.05
2023-03-28T06:48:24.527Z,5.25
2023-03-28T06:51:22.076Z,2.13
2023-03-28T06:53:54.250Z,3.40
2023-03-28T06:56:30.170Z,3.30
2023-03-28T06:59:03.754Z,3.15
2023-03-28T07:01:37.751Z,2.33
2023-03-28T07:04:15.444Z,3.35
2023-03-28T07:06:49.731Z,3.80
2023-03-28T07:09:21.459Z,3.30
2023-03-28T07:12:06.079Z,2.80
2023-03-28T07:14:40.392Z,4.28
2023-03-28T07:17:12.494Z,5.18
2023-03-28T07:19:46.076Z,4.00
2023-03-28T07:22:18.119Z,5.67
2023-03-28T07:24:49.882Z,3.17
2023-03-28T07:27:22.846Z,5.22
2023-03-28T07:29:56.647Z,4.45
2023-03-28T07:32:38.852Z,4.30
2023-03-28T07:35:14.912Z,3.95
2023-03-28T07:37:52.290Z,5.30
2023-03-28T07:40:53.407Z,2.75
2023-03-28T07:43:26.312Z,5.55
2023-03-28T07:46:03.633Z,3.30
2023-03-28T07:48:36.956Z,4.75
2023-03-28T07:51:10.048Z,4.80
2023-03-28T07:53:42.414Z,2.60
2023-03-28T07:56:14.185Z,2.05
2023-03-28T07:59:05.606Z,4.60
2023-03-28T08:01:37.904Z,3.35
2023-03-28T08:04:12.128Z,4.28
2023-03-28T08:06:58.050Z,4.07
2023-03-28T08:09:30.104Z,3.30
2023-03-28T08:12:29.435Z,5.03
2023-03-28T08:15:05.484Z,3.38
2023-03-28T08:17:38.100Z,4.40
2023-03-28T08:20:12.188Z,3.58
2023-03-28T08:23:03.836Z,5.13
2023-03-28T08:25:47.981Z,4.47
2023-03-28T08:28:23.143Z,2.85
2023-03-28T08:30:54.878Z,3.83
2023-03-28T08:33:26.806Z,6.00
2023-03-28T08:35:58.650Z,4.13
2023-03-28T08:38:31.625Z,4.38
2023-03-28T08:41:43.704Z,2.42
2023-03-28T08:44:27.173Z,5.07
2023-03-28T08:47:10.764Z,4.50
2023-03-28T08:49:48.830Z,6.28
2023-03-28T08:52:21.410Z,5.70
2023-03-28T08:55:02.470Z,2.95
2023-03-28T08:57:36.031Z,2.65
2023-03-28T09:00:15.389Z,2.40
2023-03-28T09:02:48.585Z,2.70
2023-03-28T09:05:38.130Z,4.05
2023-03-28T09:08:48.330Z,2.53
2023-03-28T09:11:54.238Z,6.05
2023-03-28T09:14:41.854Z,4.63
2023-03-28T09:17:34.853Z,2.78
2023-03-28T09:20:37.063Z,5.05
2023-03-28T09:23:27.858Z,2.60
2023-03-28T09:27:27.111Z,3.20
2023-03-28T09:30:27.312Z,3.45
2023-03-28T09:33:03.258Z,4.57
2023-03-28T09:35:35.358Z,4.28
2023-03-28T09:38:18.090Z,2.78
2023-03-28T09:40:55.518Z,2.53
2023-03-28T09:46:18.818Z,2.83
2023-03-28T09:49:41.024Z,1.83
2023-03-28T09:52:19.747Z,2.20
2023-03-28T09:57:26.465Z,1.23
2023-03-28T10:00:21.068Z,1.73
2023-03-28T10:03:29.329Z,2.92
2023-03-28T10:06:27.662Z,2.03
2023-03-28T10:09:31.628Z,1.30
2023-03-28T10:12:11.396Z,2.28
2023-03-28T10:15:04.311Z,3.67
2023-03-28T10:18:17.641Z,3.30
2023-03-28T10:20:53.772Z,3.35
2023-03-28T10:26:03.415Z,2.63
2023-03-28T10:28:36.528Z,2.65
2023-03-28T10:31:21.451Z,4.95
2023-03-28T10:36:57.037Z,2.70
2023-03-28T10:39:37.444Z,2.97
2023-03-28T10:42:43.933Z,1.42
2023-03-28T10:45:42.505Z,2.15
2023-03-28T10:48:22.876Z,4.32
2023-03-28T10:50:58.466Z,1.38
2023-03-28T10:54:02.362Z,2.42
2023-03-28T10:56:52.654Z,3.70
2023-03-28T10:59:54.963Z,3.40
2023-03-28T11:02:49.990Z,2.45
2023-03-28T11:06:05.867Z,2.00
2023-03-28T11:09:04.725Z,4.18
2023-03-28T11:14:43.109Z,2.63
2023-03-28T11:17:45.647Z,2.17
2023-03-28T11:20:44.471Z,4.20
2023-03-28T11:23:38.139Z,2.50
2023-03-28T11:26:47.702Z,7.28
2023-03-28T11:32:40.459Z,4.55
2023-03-28T11:35:28.977Z,3.38
2023-03-28T11:38:14.982Z,3.17
2023-03-28T11:41:22.346Z,2.10
2023-03-28T11:44:22.655Z,2.63
2023-03-28T11:47:21.675Z,6.15
2023-03-28T11:50:16.359Z,1.88
2023-03-28T11:53:27.131Z,2.47
2023-03-28T11:56:32.260Z,1.73
2023-03-28T11:59:35.686Z,4.03
2023-03-28T12:02:18.642Z,3.55
2023-03-28T12:07:54.675Z,8.27
2023-03-28T12:10:39.896Z,5.32
2023-03-28T12:13:46.287Z,3.83
2023-03-28T12:16:24.174Z,3.10
2023-03-28T12:19:01.426Z,3.65
2023-03-28T12:21:55.614Z,4.97
2023-03-28T12:24:49.713Z,1.70
2023-03-28T12:27:42.215Z,3.75
2023-03-28T12:30:22.777Z,2.38
2023-03-28T12:33:15.175Z,4.97
2023-03-28T12:36:11.057Z,3.50
2023-03-28T12:39:00.433Z,2.83
2023-03-28T12:41:43.185Z,2.75
2023-03-28T12:44:24.875Z,5.78
2023-03-28T12:47:10.850Z,3.30
2023-03-28T12:50:01.364Z,2.90
2023-03-28T12:52:36.499Z,3.95
2023-03-28T12:55:26.237Z,5.10
2023-03-28T12:58:34.205Z,5.47
2023-03-28T13:01:20.839Z,3.17
2023-03-28T13:04:21.991Z,2.35
2023-03-28T13:07:18.265Z,2.38
2023-03-28T13:10:01.321Z,6.90
2023-03-28T13:12:35.701Z,3.78
2023-03-28T13:15:13.107Z,3.30
2023-03-28T13:18:09.199Z,2.13
2023-03-28T13:20:46.042Z,3.53
2023-03-28T13:23:32.099Z,4.32
2023-03-28T13:26:07.393Z,4.07
2023-03-28T13:28:45.555Z,3.35
2023-03-28T13:31:20.110Z,3.80
2023-03-28T13:34:01.777Z,3.97
2023-03-28T13:36:35.532Z,4.43
2023-03-28T13:39:25.401Z,3.72
2023-03-28T13:41:58.692Z,2.50
2023-03-28T13:44:42.799Z,3.28
2023-03-28T13:47:25.316Z,2.80
2023-03-28T13:50:07.034Z,3.42
2023-03-28T13:52:39.330Z,2.65
2023-03-28T13:55:29.400Z,4.53
2023-03-28T13:58:01.977Z,3.42
2023-03-28T14:00:33.654Z,4.75
2023-03-28T14:03:11.826Z,5.13
2023-03-28T14:05:45.694Z,4.13
2023-03-28T14:08:17.539Z,6.13
2023-03-28T14:10:52.251Z,2.97
2023-03-28T14:15:58.249Z,1.92
2023-03-28T14:18:56.759Z,4.78
2023-03-28T14:21:28.535Z,3.90
2023-03-28T14:24:04.613Z,4.05
2023-03-28T14:26:39.317Z,3.78
2023-03-28T14:31:48.616Z,3.83
2023-03-28T14:34:35.208Z,2.50
2023-03-28T14:37:19.640Z,3.25
2023-03-28T14:39:52.631Z,2.58
2023-03-28T14:42:27.370Z,6.45
2023-03-28T14:47:35.504Z,3.63
2023-03-28T14:50:14.114Z,5.75
2023-03-28T14:52:46.946Z,4.03
2023-03-28T14:55:22.764Z,3.42
2023-03-28T14:57:55.834Z,2.38
2023-03-28T15:00:49.984Z,2.10
2023-03-28T15:03:43.754Z,5.32
2023-03-28T15:06:17.538Z,1.92
2023-03-28T15:08:49.752Z,4.88
2023-03-28T15:11:37.180Z,2.45
2023-03-28T15:14:11.669Z,3.92
2023-03-28T15:16:45.648Z,4.00
2023-03-28T15:19:33.796Z,4.07
2023-03-28T15:22:12.501Z,3.47
2023-03-28T15:24:46.555Z,2.08
2023-03-28T15:27:31.917Z,4.78
2023-03-28T15:30:06.727Z,5.97
2023-03-28T15:32:38.576Z,2.95
2023-03-28T15:35:40.869Z,2.85
2023-03-28T15:38:12.548Z,4.35
2023-03-28T15:40:47.185Z,2.42
2023-03-28T15:43:50.296Z,1.35
2023-03-28T15:46:29.256Z,3.60
2023-03-28T15:49:03.176Z,5.43
2023-03-28T15:51:49.108Z,4.72
2023-03-28T15:54:31.488Z,2.08
2023-03-28T15:57:04.041Z,3.10
2023-03-28T15:59:40.031Z,6.00
2023-03-28T16:02:21.541Z,4.03
2023-03-28T16:05:16.362Z,3.30
2023-03-28T16:07:50.682Z,5.28
2023-03-28T16:10:25.233Z,2.55
2023-03-28T16:13:22.796Z,4.05
2023-03-28T16:16:18.969Z,4.80
2023-03-28T16:18:59.460Z,3.08
2023-03-28T16:21:31.347Z,4.57
2023-03-28T16:24:05.546Z,2.40
2023-03-28T16:26:37.468Z,4.38
2023-03-28T16:29:11.421Z,3.95
2023-03-28T16:31:43.568Z,7.70
2023-03-28T16:34:15.257Z,4.93
2023-03-28T16:36:46.995Z,5.20
2023-03-28T16:39:18.682Z,4.03
2023-03-28T16:41:50.658Z,4.63
2023-03-28T16:44:22.403Z,3.72
2023-03-28T16:46:55.022Z,4.00
2023-03-28T16:49:27.201Z,4.00
2023-03-28T16:51:59.065Z,6.72
2023-03-28T16:54:30.823Z,4.45
2023-03-28T16:57:02.675Z,2.60
2023-03-28T16:59:34.539Z,4.60
2023-03-28T17:02:07.710Z,4.28
2023-03-28T17:04:39.430Z,5.63
2023-03-28T17:07:11.139Z,5.40
2023-03-28T17:09:43.215Z,5.93
2023-03-28T17:12:14.965Z,6.28
2023-03-28T17:14:47.369Z,6.72
2023-03-28T17:17:19.614Z,3.88
2023-03-28T17:19:54.322Z,4.45
2023-03-28T17:25:00.868Z,4.43
2023-03-28T17:30:06.110Z,7.93
2023-03-28T17:32:38.029Z,5.15
2023-03-28T17:35:12.256Z,6.15
2023-03-28T17:37:49.074Z,5.15
2023-03-28T17:40:21.080Z,8.88
2023-03-28T17:42:52.944Z,10.77
2023-03-28T17:45:26.366Z,4.20
2023-03-28T17:47:58.172Z,6.38
2023-03-28T17:50:29.962Z,5.35
2023-03-28T17:53:02.202Z,7.32
2023-03-28T17:55:34.321Z,6.80
2023-03-28T17:58:06.242Z,5.53
2023-03-28T18:00:38.472Z,5.65
2023-03-28T18:03:10.350Z,7.03
2023-03-28T18:06:03.742Z,8.77
2023-03-28T18:08:36.031Z,7.68
2023-03-28T18:11:16.921Z,4.28
2023-03-28T18:13:48.831Z,7.20
2023-03-28T18:16:20.656Z,5.25
2023-03-28T18:18:54.320Z,8.05
2023-03-28T18:21:26.275Z,5.95
2023-03-28T18:23:59.313Z,6.57
2023-03-28T18:26:31.598Z,5.40
2023-03-28T18:29:03.922Z,5.35
2023-03-28T18:31:36.917Z,4.22
2023-03-28T18:34:08.746Z,8.85
2023-03-28T18:36:45.502Z,8.73
2023-03-28T18:39:17.364Z,8.55
2023-03-28T18:41:51.079Z,5.15
2023-03-28T18:44:22.912Z,6.72
2023-03-28T18:46:55.439Z,9.55
2023-03-28T18:49:30.924Z,7.82
2023-03-28T18:52:05.421Z,9.68
2023-03-28T18:54:37.641Z,6.90
2023-03-28T18:57:09.463Z,5.65
2023-03-28T18:59:41.828Z,8.88
2023-03-28T19:02:17.547Z,5.93
2023-03-28T19:04:49.504Z,7.07
2023-03-28T19:07:21.521Z,6.57
2023-03-28T19:09:53.745Z,6.38
2023-03-28T19:12:27.028Z,6.22
2023-03-28T19:14:58.723Z,5.68
2023-03-28T19:17:33.489Z,7.72
2023-03-28T19:22:44.474Z,8.15
2023-03-28T19:25:16.395Z,5.93
2023-03-28T19:27:50.416Z,9.27
2023-03-28T19:30:22.204Z,9.18
2023-03-28T19:32:53.933Z,7.68
2023-03-28T19:35:25.930Z,9.50
2023-03-28T19:37:58.330Z,8.35
2023-03-28T19:40:30.312Z,8.82
2023-03-28T19:43:02.720Z,11.43
2023-03-28T19:45:39.804Z,11.50
2023-03-28T19:50:43.761Z,12.32
2023-03-28T19:53:15.672Z,9.52
2023-03-28T19:55:53.664Z,8.68
2023-03-28T19:58:25.877Z,12.23
2023-03-28T20:00:57.592Z,10.48
2023-03-28T20:03:31.516Z,11.23
2023-03-28T20:06:12.849Z,8.93
2023-03-28T20:08:44.600Z,9.65
2023-03-28T20:11:17.165Z,9.45
2023-03-28T20:13:49.110Z,11.02
2023-03-28T20:16:21.308Z,10.00
2023-03-28T20:18:55.265Z,15.02
2023-03-28T20:21:31.113Z,8.35
2023-03-28T20:24:04.410Z,9.40
2023-03-28T20:26:36.795Z,8.90
2023-03-28T20:29:13.734Z,8.23
2023-03-28T20:31:48.508Z,11.05
2023-03-28T20:36:56.572Z,13.70
2023-03-28T20:39:33.980Z,10.57
2023-03-28T20:42:06.691Z,9.98
2023-03-28T20:44:38.602Z,9.48
2023-03-28T20:47:18.666Z,14.10
2023-03-28T20:49:56.925Z,16.58
2023-03-28T20:52:30.737Z,14.13
2023-03-28T20:55:02.561Z,13.47
2023-03-28T20:57:41.015Z,10.00
2023-03-28T21:00:14.909Z,13.82
2023-03-28T21:02:53.770Z,12.98
2023-03-28T21:05:27.589Z,14.75
2023-03-28T21:08:04.342Z,14.27
2023-03-28T21:10:42.026Z,13.80
2023-03-28T21:13:16.680Z,13.00
2023-03-28T21:15:51.670Z,13.10
2023-03-28T21:18:24.005Z,17.52
2023-03-28T21:20:58.067Z,16.83
2023-03-28T21:23:32.669Z,14.88
2023-03-28T21:26:08.538Z,15.40
2023-03-28T21:28:40.816Z,13.60
2023-03-28T21:31:15.632Z,16.23
2023-03-28T21:36:20.805Z,15.43
2023-03-28T21:38:53.048Z,16.38
2023-03-28T21:41:29.257Z,13.25
2023-03-28T21:44:03.831Z,15.82
2023-03-28T21:46:36.464Z,13.05
2023-03-28T21:49:08.321Z,14.75
2023-03-28T21:51:43.168Z,13.68
2023-03-28T21:54:15.410Z,12.98
2023-03-28T21:56:47.225Z,13.05
2023-03-28T21:59:19.071Z,12.60
2023-03-28T22:01:50.836Z,15.23
2023-03-28T22:04:28.376Z,12.05
2023-03-28T22:07:03.056Z,13.20
2023-03-28T22:09:35.957Z,15.52
2023-03-28T22:12:10.268Z,13.13
2023-03-28T22:14:42.392Z,12.90
2023-03-28T22:17:14.527Z,12.05
2023-03-28T22:19:47.252Z,14.45
2023-03-28T22:22:19.062Z,17.08
2023-03-28T22:24:53.613Z,15.88
2023-03-28T22:27:31.405Z,16.00
2023-03-28T22:30:03.529Z,12.52
2023-03-28T22:32:35.917Z,11.73
2023-03-28T22:35:08.644Z,14.10
2023-03-28T22:37:40.358Z,16.88
2023-03-28T22:40:12.893Z,13.35
2023-03-28T22:42:45.235Z,12.48
2023-03-28T22:45:16.992Z,12.57
2023-03-28T22:47:51.654Z,14.05
2023-03-28T22:50:24.706Z,16.45
2023-03-28T22:52:56.428Z,14.55
2023-03-28T22:55:28.439Z,14.45
2023-03-28T22:58:00.198Z,14.80
2023-03-28T23:00:32.500Z,13.32
2023-03-28T23:03:04.318Z,17.05
2023-03-28T23:05:42.635Z,13.80
2023-03-28T23:08:15.255Z,14.27
2023-03-28T23:10:47.352Z,15.75
2023-03-28T23:13:19.202Z,16.23
2023-03-28T23:15:51.407Z,15.65
2023-03-28T23:18:23.144Z,13.80
2023-03-28T23:20:54.857Z,15.23
2023-03-28T23:23:27.266Z,15.13
2023-03-28T23:26:01.622Z,14.50
2023-03-28T23:28:33.387Z,14.40
2023-03-28T23:31:06.296Z,15.93
2023-03-28T23:33:38.097Z,15.15
2023-03-28T23:36:10.094Z,14.95
2023-03-28T23:38:41.867Z,10.68
2023-03-28T23:41:14.296Z,15.20
2023-03-28T23:43:46.447Z,15.48
2023-03-28T23:46:21.544Z,15.18
2023-03-28T23:48:53.393Z,12.90
2023-03-28T23:51:31.162Z,14.80
2023-03-28T23:54:03.302Z,16.42
2023-03-28T23:56:38.023Z,15.90
2023-03-28T23:59:09.816Z,15.90
